createdAt,value
2017-04-03T00:00:16.123Z,0
2017-04-03T00:05:15.783Z,0
2017-04-03T00:10:16.080Z,0
2017-04-03T00:15:16.054Z,0
2017-04-03T00:20:15.721Z,0
2017-04-03T00:25:16.007Z,0
2017-04-03T00:30:15.989Z,0
2017-04-03T00:35:15.981Z,0
2017-04-03T00:40:15.651Z,0
2017-04-03T00:45:15.913Z,0
2017-04-03T00:50:15.891Z,0
2017-04-03T00:55:15.859Z,0
2017-04-03T01:00:15.851Z,0
2017-04-03T01:05:15.843Z,0
2017-04-03T01:10:15.892Z,0
2017-04-03T01:15:15.845Z,0
2017-04-03T01:20:15.982Z,0
2017-04-03T01:25:15.712Z,0
2017-04-03T01:30:15.680Z,0
2017-04-03T01:35:15.676Z,0
2017-04-03T01:40:15.329Z,0
2017-04-03T01:45:15.308Z,0
2017-04-03T01:50:15.589Z,0
2017-04-03T01:55:15.004Z,0
2017-04-03T02:00:15.584Z,0
2017-04-03T02:05:15.308Z,0
2017-04-03T02:10:15.482Z,0
2017-04-03T02:15:15.462Z,0
2017-04-03T02:20:15.672Z,0
2017-04-03T02:25:15.459Z,0
2017-04-03T02:30:14.785Z,0
2017-04-03T02:35:15.373Z,0
2017-04-03T02:40:14.710Z,0
2017-04-03T02:45:15.002Z,0
2017-04-03T02:50:15.276Z,0
2017-04-03T02:55:14.893Z,0
2017-04-03T03:00:15.137Z,0
2017-04-03T03:05:15.185Z,0
2017-04-03T03:10:15.168Z,0
2017-04-03T03:15:15.154Z,0
2017-04-03T03:20:15.128Z,0
2017-04-03T03:25:15.162Z,0
2017-04-03T03:30:15.094Z,0
2017-04-03T03:35:15.074Z,0
2017-04-03T03:40:15.044Z,0
2017-04-03T03:45:15.024Z,0
2017-04-03T03:50:14.675Z,0
2017-04-03T03:55:15.174Z,0
2017-04-03T04:00:14.622Z,0
2017-04-03T04:05:14.937Z,0
2017-04-03T04:10:14.637Z,0
2017-04-03T04:15:14.840Z,0
2017-04-03T04:20:14.208Z,0
2017-04-03T04:25:14.471Z,0
2017-04-03T04:30:14.757Z,0
2017-04-03T04:35:14.778Z,0
2017-04-03T04:40:14.422Z,0
2017-04-03T04:45:14.099Z,0
2017-04-03T04:50:14.711Z,0
2017-04-03T04:55:14.325Z,0
2017-04-03T05:00:14.023Z,0
2017-04-03T05:05:14.563Z,0
2017-04-03T05:10:14.236Z,0
2017-04-03T05:15:14.525Z,0
2017-04-03T05:20:14.163Z,0
2017-04-03T05:25:14.452Z,0
2017-04-03T05:30:14.411Z,0
2017-04-03T05:35:14.391Z,0
2017-04-03T05:40:14.363Z,5
2017-04-03T05:45:14.328Z,5
2017-04-03T05:50:14.289Z,5
2017-04-03T05:55:13.956Z,5
2017-04-03T06:00:13.917Z,5
2017-04-03T06:05:14.205Z,10
2017-04-03T06:10:14.183Z,10
2017-04-03T06:15:14.231Z,15
2017-04-03T06:20:13.833Z,15
2017-04-03T06:25:13.761Z,15
2017-04-03T06:30:14.067Z,15
2017-04-03T06:35:13.708Z,20
2017-04-03T06:40:13.996Z,20
2017-04-03T06:45:13.621Z,25
2017-04-03T06:50:13.902Z,25
2017-04-03T06:55:13.893Z,25
2017-04-03T07:00:13.542Z,30
2017-04-03T07:05:13.862Z,30
2017-04-03T07:10:13.789Z,30
2017-04-03T07:15:13.756Z,30
2017-04-03T07:20:13.412Z,35
2017-04-03T07:25:13.677Z,35
2017-04-03T07:30:13.673Z,40
2017-04-03T07:35:13.315Z,35
2017-04-03T07:40:13.592Z,40
2017-04-03T07:45:13.286Z,45
2017-04-03T07:50:13.557Z,50
2017-04-03T07:55:13.518Z,55
2017-04-03T08:00:13.490Z,50
2017-04-03T08:05:13.454Z,55
2017-04-03T08:10:13.424Z,50
2017-04-03T08:15:13.438Z,55
2017-04-03T08:20:13.366Z,60
2017-04-03T08:25:13.432Z,60
2017-04-03T08:30:13.289Z,75
2017-04-03T08:35:13.029Z,95
2017-04-03T08:40:13.040Z,120
2017-04-03T08:45:12.944Z,100
2017-04-03T08:50:13.196Z,115
2017-04-03T08:55:13.171Z,110
2017-04-03T09:00:13.150Z,125
2017-04-03T09:05:13.113Z,130
2017-04-03T09:10:13.088Z,180
2017-04-03T09:15:13.072Z,140
2017-04-03T09:20:13.055Z,135
2017-04-03T09:25:13.021Z,150
2017-04-03T09:30:13.112Z,150
2017-04-03T09:35:13.068Z,150
2017-04-03T09:40:12.757Z,230
2017-04-03T09:45:13.054Z,390
2017-04-03T09:50:12.355Z,225
2017-04-03T09:55:13.041Z,210
2017-04-03T10:00:12.941Z,150
2017-04-03T10:05:12.951Z,145
2017-04-03T10:10:12.602Z,145
2017-04-03T10:15:12.889Z,150
2017-04-03T10:20:12.560Z,150
2017-04-03T10:25:12.841Z,200
2017-04-03T10:30:12.826Z,215
2017-04-03T10:35:12.830Z,370
2017-04-03T10:40:12.802Z,235
2017-04-03T10:45:12.529Z,155
2017-04-03T10:50:12.791Z,195
2017-04-03T10:55:12.791Z,240
2017-04-03T11:00:12.783Z,205
2017-04-03T11:05:12.774Z,205
2017-04-03T11:10:12.767Z,195
2017-04-03T11:15:12.778Z,165
2017-04-03T11:20:12.741Z,160
2017-04-03T11:25:12.742Z,115
2017-04-03T11:30:12.803Z,110
2017-04-03T11:35:12.428Z,105
2017-04-03T11:40:12.822Z,125
2017-04-03T11:45:12.400Z,110
2017-04-03T11:50:12.375Z,115
2017-04-03T11:55:12.641Z,100
2017-04-03T12:00:12.673Z,105
2017-04-03T12:05:12.215Z,120
2017-04-03T12:10:12.518Z,95
2017-04-03T12:15:12.431Z,120
2017-04-03T12:20:12.381Z,100
2017-04-03T12:25:12.357Z,95
2017-04-03T12:30:12.302Z,100
2017-04-03T12:35:12.242Z,95
2017-04-03T12:40:12.238Z,95
2017-04-03T12:45:11.964Z,90
2017-04-03T12:50:12.394Z,70
2017-04-03T12:55:11.786Z,70
2017-04-03T13:00:12.048Z,65
2017-04-03T13:05:11.675Z,65
2017-04-03T13:10:11.919Z,65
2017-04-03T13:15:11.874Z,65
2017-04-03T13:20:11.545Z,70
2017-04-03T13:25:11.171Z,70
2017-04-03T13:30:11.462Z,65
2017-04-03T13:35:11.672Z,75
2017-04-03T13:40:11.383Z,60
2017-04-03T13:45:11.401Z,55
2017-04-03T13:50:11.200Z,60
2017-04-03T13:55:11.147Z,55
2017-04-03T14:00:11.107Z,50
2017-04-03T14:05:11.523Z,55
2017-04-03T14:10:11.414Z,55
2017-04-03T14:15:10.943Z,55
2017-04-03T14:20:11.181Z,55
2017-04-03T14:25:10.826Z,55
2017-04-03T14:30:11.064Z,55
2017-04-03T14:35:11.045Z,170
2017-04-03T14:40:11.088Z,175
2017-04-03T14:45:11.003Z,180
2017-04-03T14:50:10.685Z,165
2017-04-03T14:55:10.961Z,170
2017-04-03T15:00:10.915Z,155
2017-04-03T15:05:10.951Z,150
2017-04-03T15:10:10.446Z,145
2017-04-03T15:15:10.400Z,140
2017-04-03T15:20:10.319Z,135
2017-04-03T15:25:10.262Z,135
2017-04-03T15:30:10.516Z,135
2017-04-03T15:35:10.454Z,130
2017-04-03T15:40:10.610Z,135
2017-04-03T15:45:10.312Z,125
2017-04-03T15:50:09.949Z,125
2017-04-03T15:55:10.199Z,120
2017-04-03T16:00:10.167Z,120
2017-04-03T16:05:10.076Z,115
2017-04-03T16:10:10.008Z,110
2017-04-03T16:15:09.948Z,105
2017-04-03T16:20:09.581Z,100
2017-04-03T16:25:09.574Z,95
2017-04-03T16:30:09.470Z,100
2017-04-03T16:35:09.136Z,95
2017-04-03T16:40:09.340Z,95
2017-04-03T16:45:09.583Z,90
2017-04-03T16:50:09.616Z,85
2017-04-03T16:55:09.433Z,85
2017-04-03T17:00:09.386Z,80
2017-04-03T17:05:09.006Z,75
2017-04-03T17:10:09.279Z,70
2017-04-03T17:15:09.222Z,65
2017-04-03T17:20:09.013Z,60
2017-04-03T17:25:08.827Z,55
2017-04-03T17:30:08.710Z,50
2017-04-03T17:35:08.584Z,45
2017-04-03T17:40:08.883Z,40
2017-04-03T17:45:08.813Z,35
2017-04-03T17:50:08.754Z,25
2017-04-03T17:55:08.456Z,20
2017-04-03T18:00:08.713Z,15
2017-04-03T18:05:08.659Z,10
2017-04-03T21:20:19.302Z,0
2017-04-03T21:25:19.257Z,0
